Terminal Aerodrome Forecast
Issued by NWS Sterling, VA

Home | Current Version | Previous Version | Text Only | Print | Product List | Glossary On
Versions: 1 2 3 4 5 6 7 8 9 10 11 12 13 14 15 16 17
478
FTUS41 KLWX 121720
TAFMRB
TAF
KMRB 121720Z 1218/1318 29015G23KT P6SM SCT050 BKN070
     FM122200 30017G27KT P6SM FEW060 SCT080=

USA.gov is the U.S. government's official web portal to all federal, state and local government web resources and services.